< < Back
Terminal Aerodrome Forecast


Current Version              Previous Versions:   1  2  3  4  5  6  7  8  9  

Terminal Aerodrome Forecast

166
FTUS42 KGSP 011729
TAFAND
TAF
KAND 011729Z 0118/0218 06006KT P6SM BKN070
     FM012200 34005KT P6SM FEW070
     FM020500 08004KT P6SM FEW250
     FM021400 06008KT P6SM SKC=

Latest METAR

059
SAUS70 KWBC 012000 RRX
MTRAND
METAR KAND 011956Z AUTO 11006KT 10SM FEW080 34/13 A2993 RMK AO2 SLP122
T03390128


USA.gov is the U.S. government's official web portal to all federal, state and local government web resources and services.